Time;durP1;ratioP1;P1;durP2;ratioP2;P2;SDS_P1;SDS_P2;PMS_P1;PMS_P2;Temp;Humidity;BMP_temperature;BMP_pressure;BME280_temperature;BME280_humidity;BME280_pressure;Samples;Min_cycle;Max_cycle;Signal;HPM_P1;HPM_P2
2022/07/23 00:01:00;;;;;;;9.35;2.72;;;;;;;19.31;83.77;100784.38;2004498;71;21081;-62
2022/07/23 00:03:30;;;;;;;11.15;2.85;;;;;;;19.31;83.55;100789.73;2004656;71;21007;-62
2022/07/23 00:05:58;;;;;;;13.40;2.25;;;;;;;19.32;83.40;100787.41;2004565;71;21027;-62
2022/07/23 00:08:27;;;;;;;10.18;3.02;;;;;;;19.32;83.50;100787.90;2004526;71;21007;-63
2022/07/23 00:10:55;;;;;;;6.30;2.90;;;;;;;19.34;83.63;100785.96;2004560;71;21007;-63
2022/07/23 00:13:24;;;;;;;8.28;2.70;;;;;;;19.36;83.83;100789.36;2007412;71;21035;-62
2022/07/23 00:15:53;;;;;;;9.78;2.87;;;;;;;19.38;83.86;100791.43;2007378;71;21069;-62
2022/07/23 00:18:21;;;;;;;7.12;2.67;;;;;;;19.41;83.91;100797.89;2007295;71;21002;-62
2022/07/23 00:20:51;;;;;;;9.25;2.72;;;;;;;19.41;83.85;100793.39;2007363;71;20995;-63
2022/07/23 00:23:20;;;;;;;7.72;2.52;;;;;;;19.41;83.78;100792.55;2007234;71;20995;-63
2022/07/23 00:25:49;;;;;;;6.12;2.27;;;;;;;19.40;83.80;100786.83;2007427;71;21014;-62
2022/07/23 00:28:18;;;;;;;7.50;2.80;;;;;;;19.39;83.90;100789.14;2007272;71;21450;-62
2022/07/23 00:30:47;;;;;;;9.70;3.05;;;;;;;19.38;83.96;100790.09;2007409;70;21503;-62
2022/07/23 00:33:16;;;;;;;15.58;2.87;;;;;;;19.38;84.03;100798.10;2007293;71;21096;-62
2022/07/23 00:35:45;;;;;;;6.15;2.33;;;;;;;19.38;84.05;100802.11;2007175;71;21524;-62
2022/07/23 00:38:15;;;;;;;6.35;2.90;;;;;;;19.39;83.80;100798.00;2007382;71;21076;-62
2022/07/23 00:40:43;;;;;;;10.25;3.20;;;;;;;19.38;83.89;100798.95;2007365;71;21054;-62
2022/07/23 00:43:12;;;;;;;7.35;2.62;;;;;;;19.38;84.00;100794.10;2007291;71;21085;-61
2022/07/23 00:45:41;;;;;;;7.65;2.92;;;;;;;19.34;83.99;100793.97;2007296;71;21022;-62
2022/07/23 00:48:09;;;;;;;10.25;2.60;;;;;;;19.33;83.96;100790.92;2007241;71;21015;-62
2022/07/23 00:50:38;;;;;;;6.22;2.40;;;;;;;19.33;84.17;100790.92;2007376;71;21112;-62
2022/07/23 00:53:08;;;;;;;14.70;2.75;;;;;;;19.32;84.00;100785.23;2007371;70;21453;-62
2022/07/23 00:55:37;;;;;;;10.82;2.37;;;;;;;19.31;83.92;100784.84;2007251;71;20987;-62
2022/07/23 00:58:06;;;;;;;6.67;2.65;;;;;;;19.28;84.09;100788.12;2007299;71;21030;-62
2022/07/23 01:00:35;;;;;;;7.47;2.40;;;;;;;19.26;84.18;100790.05;2007311;71;21124;-63
2022/07/23 01:03:04;;;;;;;4.15;2.70;;;;;;;19.26;84.18;100783.38;2007249;71;21046;-62
2022/07/23 01:05:33;;;;;;;9.15;2.95;;;;;;;19.27;84.12;100786.44;2007369;71;21054;-62
2022/07/23 01:08:02;;;;;;;5.85;2.42;;;;;;;19.25;84.05;100785.66;2007354;71;21112;-61
2022/07/23 01:10:34;;;;;;;7.90;2.90;;;;;;;19.25;84.13;100783.00;2007344;71;21014;-61
2022/07/23 01:13:05;;;;;;;9.73;2.55;;;;;;;19.23;84.24;100780.93;2005400;70;21058;-61
2022/07/23 01:15:35;;;;;;;9.78;3.10;;;;;;;19.22;84.48;100782.41;2004280;71;21069;-62
2022/07/23 01:18:07;;;;;;;12.20;2.67;;;;;;;19.22;84.50;100780.58;2004428;71;21043;-61
2022/07/23 01:20:37;;;;;;;16.23;3.15;;;;;;;19.23;84.42;100782.27;2004558;71;21097;-61
2022/07/23 01:23:06;;;;;;;13.20;2.30;;;;;;;19.25;84.32;100791.00;2004415;71;21505;-61
2022/07/23 01:25:35;;;;;;;6.42;2.62;;;;;;;19.24;84.21;100789.32;2004384;71;21047;-62
2022/07/23 01:28:05;;;;;;;8.43;2.45;;;;;;;19.22;84.19;100799.27;2004464;71;21030;-62
2022/07/23 01:30:34;;;;;;;7.47;3.20;;;;;;;19.17;83.78;100801.91;2004553;71;21023;-61
2022/07/23 01:33:04;;;;;;;8.03;3.67;;;;;;;19.11;83.82;100793.88;2004283;71;21061;-61
2022/07/23 01:35:33;;;;;;;8.25;3.42;;;;;;;19.06;84.30;100797.36;2004443;71;21066;-62
2022/07/23 01:38:04;;;;;;;8.18;2.77;;;;;;;19.02;84.88;100788.73;2003942;71;21641;-65
2022/07/23 01:40:33;;;;;;;10.63;3.37;;;;;;;18.99;85.08;100781.43;2004329;71;21052;-62
2022/07/23 01:43:01;;;;;;;5.78;3.10;;;;;;;18.97;85.21;100782.03;2004572;71;21014;-61
2022/07/23 01:45:32;;;;;;;6.30;3.45;;;;;;;18.96;85.30;100781.64;2004482;71;21024;-62
2022/07/23 01:48:01;;;;;;;13.13;5.40;;;;;;;18.92;85.30;100777.51;2004443;71;21527;-62
2022/07/23 01:50:30;;;;;;;11.55;3.98;;;;;;;18.88;85.28;100778.21;2004416;71;21027;-62
2022/07/23 01:53:13;;;;;;;7.53;4.05;;;;;;;18.84;85.63;100777.58;2003616;71;21050;-61
2022/07/23 01:55:43;;;;;;;8.43;3.58;;;;;;;18.81;85.83;100781.83;2004405;71;21080;-61
2022/07/23 01:58:12;;;;;;;8.90;3.55;;;;;;;18.79;86.12;100777.52;2004598;71;20994;-60
2022/07/23 02:00:41;;;;;;;8.18;3.50;;;;;;;18.78;86.19;100780.68;2004664;71;21100;-61
2022/07/23 02:03:09;;;;;;;8.70;3.67;;;;;;;18.75;86.21;100782.23;2004488;71;21121;-61
2022/07/23 02:05:38;;;;;;;11.00;3.70;;;;;;;18.73;86.14;100784.16;2004829;71;21461;-61
2022/07/23 02:08:07;;;;;;;7.72;3.02;;;;;;;18.69;86.21;100789.35;2004704;71;21007;-61
2022/07/23 02:10:37;;;;;;;9.35;2.85;;;;;;;18.65;86.20;100793.20;2004773;71;21038;-61
2022/07/23 02:13:07;;;;;;;16.67;3.60;;;;;;;18.61;86.20;100794.37;2005525;71;21505;-62
2022/07/23 02:15:36;;;;;;;6.62;2.83;;;;;;;18.59;86.08;100798.50;2007278;71;21080;-63
2022/07/23 02:18:05;;;;;;;11.90;3.50;;;;;;;18.55;86.08;100796.16;2007263;71;21523;-62
2022/07/23 02:20:33;;;;;;;7.37;3.47;;;;;;;18.50;86.08;100794.67;2007286;71;21054;-62
2022/07/23 02:23:02;;;;;;;6.40;3.30;;;;;;;18.48;86.41;100794.39;2007353;71;20995;-61
2022/07/23 02:25:32;;;;;;;13.62;3.52;;;;;;;18.48;86.54;100795.27;2007364;71;21100;-62
2022/07/23 02:28:02;;;;;;;10.78;3.85;;;;;;;18.48;86.46;100792.60;2007354;71;21038;-61
2022/07/23 02:30:31;;;;;;;6.25;2.95;;;;;;;18.50;86.57;100789.34;2007291;70;21105;-62
2022/07/23 02:33:01;;;;;;;7.60;3.33;;;;;;;18.56;86.70;100792.53;2007259;71;21038;-61
2022/07/23 02:35:30;;;;;;;12.13;3.30;;;;;;;18.66;86.79;100793.56;2007337;71;21453;-61
2022/07/23 02:38:01;;;;;;;9.33;3.00;;;;;;;18.77;86.69;100799.45;2007346;71;21055;-61
2022/07/23 02:40:31;;;;;;;7.17;3.05;;;;;;;18.86;86.54;100795.66;2007294;71;21113;-61
2022/07/23 02:43:00;;;;;;;9.40;3.27;;;;;;;18.99;86.29;100797.44;2007268;71;21015;-61
2022/07/23 02:45:29;;;;;;;8.88;2.42;;;;;;;19.08;86.03;100797.60;2007320;71;21038;-61
2022/07/23 02:47:59;;;;;;;10.70;3.27;;;;;;;19.15;85.60;100796.68;2007567;71;21485;-61
2022/07/23 02:50:27;;;;;;;8.50;2.92;;;;;;;19.25;85.41;100801.69;2007334;71;21027;-61
2022/07/23 02:52:57;;;;;;;7.65;3.17;;;;;;;19.34;85.16;100800.64;2007329;70;21504;-61
2022/07/23 02:55:26;;;;;;;7.42;2.83;;;;;;;19.44;84.77;100801.17;2007183;71;21034;-61
2022/07/23 02:57:55;;;;;;;6.33;2.47;;;;;;;19.55;84.14;100800.37;2007317;71;20990;-61
2022/07/23 03:00:24;;;;;;;9.10;3.22;;;;;;;19.64;83.44;100792.99;2007290;71;20975;-61
2022/07/23 03:02:53;;;;;;;11.12;3.77;;;;;;;19.72;82.86;100795.56;2007458;71;21469;-61
2022/07/23 03:05:21;;;;;;;8.45;3.35;;;;;;;19.86;82.15;100798.03;2007434;71;21018;-61
2022/07/23 03:07:50;;;;;;;6.30;3.22;;;;;;;19.78;80.92;100800.45;2007196;71;21023;-62
2022/07/23 03:10:19;;;;;;;9.45;3.45;;;;;;;19.64;80.57;100802.34;2007297;71;21493;-61
2022/07/23 03:12:48;;;;;;;6.20;2.98;;;;;;;19.57;80.60;100798.43;2007318;71;21084;-61
2022/07/23 03:15:16;;;;;;;8.70;4.28;;;;;;;19.54;80.64;100803.99;1967673;71;21046;-61
2022/07/23 03:17:45;;;;;;;11.00;3.17;;;;;;;19.63;80.86;100796.62;1964550;73;21013;-61
2022/07/23 03:20:14;;;;;;;12.20;3.40;;;;;;;19.76;80.92;100802.40;1964908;72;21605;-62
2022/07/23 03:22:43;;;;;;;12.60;3.98;;;;;;;19.70;80.62;100801.02;1964528;73;21170;-62
2022/07/23 03:25:11;;;;;;;7.35;3.45;;;;;;;19.81;80.89;100798.90;1964581;72;21087;-61
2022/07/23 03:27:41;;;;;;;10.48;4.15;;;;;;;19.98;81.04;100805.11;1964595;72;21437;-62
2022/07/23 03:30:11;;;;;;;14.05;4.75;;;;;;;20.12;81.09;100802.71;1964703;72;21476;-62
2022/07/23 03:32:40;;;;;;;7.67;3.05;;;;;;;20.12;80.50;100806.72;1964619;72;21103;-64
2022/07/23 03:35:09;;;;;;;9.43;3.45;;;;;;;20.06;80.00;100805.84;1964535;73;21016;-62
2022/07/23 03:37:39;;;;;;;13.00;3.58;;;;;;;19.99;79.55;100810.83;1963789;73;21070;-62
2022/07/23 03:40:09;;;;;;;7.50;2.95;;;;;;;19.96;79.40;100812.89;1964548;73;21017;-62
2022/07/23 03:42:41;;;;;;;11.73;3.70;;;;;;;19.96;79.47;100821.75;1964495;72;21042;-61
2022/07/23 03:45:09;;;;;;;7.30;3.15;;;;;;;19.91;79.27;100816.39;1964572;73;21014;-61
2022/07/23 03:47:38;;;;;;;8.23;3.52;;;;;;;19.76;79.30;100809.08;1964458;72;21021;-59
2022/07/23 03:50:08;;;;;;;13.85;3.83;;;;;;;19.67;79.48;100809.25;1964641;73;21111;-59
2022/07/23 03:52:37;;;;;;;13.93;3.52;;;;;;;19.76;79.66;100809.08;1964708;72;21018;-59
2022/07/23 03:55:06;;;;;;;12.25;3.42;;;;;;;19.93;79.94;100811.28;1964566;72;21139;-59
2022/07/23 03:57:35;;;;;;;16.00;3.60;;;;;;;20.05;79.84;100810.84;1964660;72;21119;-59
2022/07/23 04:00:06;;;;;;;11.68;3.70;;;;;;;20.38;80.11;100808.67;1964436;72;21002;-60
2022/07/23 04:02:38;;;;;;;5.58;2.85;;;;;;;20.53;79.54;100805.75;1963669;72;21065;-59
2022/07/23 04:05:08;;;;;;;9.83;2.55;;;;;;;20.76;79.20;100810.11;1964690;73;20994;-59
2022/07/23 04:07:36;;;;;;;13.22;3.47;;;;;;;20.93;78.85;100810.57;1964680;72;21021;-59
2022/07/23 04:10:06;;;;;;;10.38;3.17;;;;;;;21.22;78.04;100810.85;1964550;72;21057;-59
2022/07/23 04:12:35;;;;;;;5.58;2.08;;;;;;;21.49;77.15;100799.70;1964390;72;21344;-60
2022/07/23 04:15:05;;;;;;;8.28;2.85;;;;;;;21.85;76.87;100801.56;1987272;71;21509;-59
2022/07/23 04:17:34;;;;;;;8.68;2.65;;;;;;;22.05;75.01;100801.69;2007363;70;21014;-58
2022/07/23 04:20:03;;;;;;;6.87;2.50;;;;;;;22.27;74.21;100803.37;2007358;71;21116;-59
2022/07/23 04:22:34;;;;;;;9.35;2.40;;;;;;;22.55;72.54;100799.94;2006872;71;21018;-59
2022/07/23 04:25:02;;;;;;;6.33;2.45;;;;;;;22.71;71.35;100799.94;2007190;71;20994;-59
2022/07/23 04:27:33;;;;;;;4.75;2.35;;;;;;;22.96;70.21;100798.56;2007432;71;20998;-59
2022/07/23 04:30:01;;;;;;;5.17;2.65;;;;;;;23.26;70.12;100792.78;2007296;71;21042;-61
2022/07/23 04:32:30;;;;;;;7.00;3.02;;;;;;;23.69;69.54;100791.47;2007322;71;21043;-61
2022/07/23 04:34:59;;;;;;;6.05;2.37;;;;;;;23.95;68.67;100787.69;2007291;71;21035;-61
2022/07/23 04:37:28;;;;;;;4.10;1.90;;;;;;;24.36;68.55;100796.81;2007192;71;21003;-61
2022/07/23 04:39:57;;;;;;;4.83;1.85;;;;;;;24.91;68.51;100788.75;2007338;71;21135;-61
2022/07/23 04:42:26;;;;;;;2.58;1.60;;;;;;;25.19;65.99;100791.38;2007295;71;21066;-61
2022/07/23 04:44:54;;;;;;;5.17;2.08;;;;;;;25.29;63.08;100792.19;2007224;71;21043;-61
2022/07/23 04:47:23;;;;;;;4.50;1.70;;;;;;;25.48;63.23;100792.52;2007480;71;21527;-60
2022/07/23 04:49:53;;;;;;;2.25;1.32;;;;;;;25.74;63.00;100786.31;2007176;71;21044;-61
2022/07/23 04:52:22;;;;;;;4.20;1.85;;;;;;;26.11;62.90;100797.38;2007268;70;21146;-61
2022/07/23 04:54:51;;;;;;;2.50;1.40;;;;;;;26.33;61.87;100789.22;2007304;71;21014;-61
2022/07/23 04:57:20;;;;;;;4.42;1.80;;;;;;;26.65;61.37;100794.43;2007288;71;21046;-61
2022/07/23 04:59:49;;;;;;;3.37;1.65;;;;;;;26.94;60.53;100805.66;2007327;71;21072;-61
2022/07/23 05:02:17;;;;;;;2.22;1.25;;;;;;;27.45;60.09;100812.87;2007351;71;21018;-61
2022/07/23 05:04:46;;;;;;;4.47;1.35;;;;;;;27.63;59.15;100808.13;2007397;71;21524;-61
2022/07/23 05:07:14;;;;;;;1.82;1.20;;;;;;;27.26;58.76;100809.48;2007339;71;21084;-60
2022/07/23 05:09:43;;;;;;;2.77;1.30;;;;;;;26.83;57.96;100812.72;2007429;71;21010;-61
2022/07/23 05:12:11;;;;;;;3.92;1.60;;;;;;;26.12;57.98;100813.41;2007297;71;21007;-61
2022/07/23 05:14:42;;;;;;;1.50;1.30;;;;;;;25.91;58.57;100812.89;2006978;71;21038;-61
2022/07/23 05:17:10;;;;;;;2.47;1.32;;;;;;;26.38;58.17;100806.62;2004440;71;21015;-61
2022/07/23 05:19:39;;;;;;;1.50;1.30;;;;;;;26.83;56.64;100814.07;2004582;71;21066;-61
2022/07/23 05:22:08;;;;;;;1.55;1.40;;;;;;;27.15;56.42;100799.80;2004445;71;21010;-61
2022/07/23 05:24:36;;;;;;;3.75;1.40;;;;;;;27.53;56.04;100803.39;2004530;71;21043;-61
2022/07/23 05:27:06;;;;;;;4.62;1.30;;;;;;;27.86;54.41;100801.50;2004502;71;21090;-61
2022/07/23 05:29:35;;;;;;;2.75;1.22;;;;;;;28.21;54.59;100806.19;2004275;71;21103;-61
2022/07/23 05:32:04;;;;;;;1.70;1.25;;;;;;;28.54;54.50;100807.46;2004654;71;21088;-61
2022/07/23 05:34:35;;;;;;;2.52;1.37;;;;;;;28.18;53.88;100807.05;2004477;71;21022;-61
2022/07/23 05:37:03;;;;;;;1.75;1.32;;;;;;;27.67;51.23;100800.02;2004562;71;20995;-61
2022/07/23 05:39:32;;;;;;;3.05;1.37;;;;;;;27.51;51.75;100809.48;2004704;71;20983;-61
2022/07/23 05:42:01;;;;;;;1.87;1.55;;;;;;;27.06;52.65;100809.42;2004467;71;20995;-61
2022/07/23 05:44:30;;;;;;;3.00;1.50;;;;;;;26.61;53.35;100798.47;2004554;71;21011;-61
2022/07/23 05:46:58;;;;;;;3.42;1.75;;;;;;;26.12;53.70;100812.05;2004700;71;21015;-61
2022/07/23 05:49:27;;;;;;;4.92;1.60;;;;;;;25.68;54.26;100816.11;2004654;71;21120;-61
2022/07/23 05:52:07;;;;;;;3.05;1.75;;;;;;;25.29;54.87;100815.10;2003155;71;21066;-61
2022/07/23 05:54:38;;;;;;;2.08;1.40;;;;;;;25.04;55.60;100812.11;1998893;71;21107;-61
2022/07/23 05:57:07;;;;;;;1.87;1.42;;;;;;;25.69;55.94;100817.78;2004811;71;21039;-61
2022/07/23 05:59:36;;;;;;;1.67;1.47;;;;;;;26.28;55.89;100812.66;2004578;71;21089;-61
2022/07/23 06:02:04;;;;;;;2.40;1.55;;;;;;;27.22;55.40;100807.23;2004532;71;21011;-61
2022/07/23 06:04:33;;;;;;;2.85;1.80;;;;;;;28.02;53.78;100806.08;2004595;71;21050;-61
2022/07/23 06:07:03;;;;;;;2.00;1.57;;;;;;;28.52;51.90;100799.16;2002456;71;21506;-62
2022/07/23 06:09:32;;;;;;;1.72;1.30;;;;;;;28.97;51.44;100801.64;2004654;71;21066;-61
2022/07/23 06:12:01;;;;;;;6.12;1.98;;;;;;;28.55;50.10;100808.30;2004552;71;21019;-61
2022/07/23 06:14:30;;;;;;;3.00;1.35;;;;;;;28.55;49.70;100799.69;2004522;71;21550;-61
2022/07/23 06:17:00;;;;;;;1.85;1.30;;;;;;;28.36;49.59;100792.77;1976603;71;21143;-59
2022/07/23 06:19:29;;;;;;;2.83;1.35;;;;;;;27.73;49.87;100791.20;1964503;73;21053;-61
2022/07/23 06:21:58;;;;;;;3.55;1.55;;;;;;;27.22;49.35;100799.95;1964510;72;21158;-60
2022/07/23 06:24:28;;;;;;;2.58;1.22;;;;;;;27.33;50.22;100801.52;1964521;73;21127;-59
2022/07/23 06:26:57;;;;;;;3.42;1.35;;;;;;;28.11;50.28;100791.51;1964693;72;21026;-59
2022/07/23 06:29:26;;;;;;;2.98;1.20;;;;;;;28.74;48.92;100786.20;1964587;72;21146;-60
2022/07/23 06:31:55;;;;;;;3.80;1.37;;;;;;;29.32;47.34;100792.63;1964629;72;21115;-59
2022/07/23 06:34:23;;;;;;;2.27;1.45;;;;;;;29.61;46.45;100784.56;1964613;72;21555;-59
2022/07/23 06:36:52;;;;;;;3.08;1.20;;;;;;;29.81;44.28;100780.01;1964603;73;21002;-59
2022/07/23 06:39:20;;;;;;;2.08;1.30;;;;;;;29.85;44.11;100780.48;1964676;73;21101;-59
2022/07/23 06:41:49;;;;;;;1.35;1.10;;;;;;;29.99;43.38;100783.70;1964571;73;21046;-59
2022/07/23 06:44:19;;;;;;;2.33;1.30;;;;;;;29.61;43.78;100789.98;1964572;73;21045;-59
2022/07/23 06:46:49;;;;;;;2.30;1.20;;;;;;;29.39;44.03;100785.45;1964475;72;21045;-60
2022/07/23 06:49:17;;;;;;;2.00;1.50;;;;;;;29.61;44.39;100789.98;1964574;73;21022;-61
2022/07/23 06:51:46;;;;;;;2.92;1.60;;;;;;;29.76;44.98;100791.92;1964714;72;21507;-60
2022/07/23 06:54:15;;;;;;;4.90;1.30;;;;;;;30.08;44.57;100787.17;1964570;72;21076;-60
2022/07/23 06:56:44;;;;;;;1.62;1.30;;;;;;;29.99;43.76;100782.34;1964827;73;21134;-61
2022/07/23 06:59:12;;;;;;;3.35;2.00;;;;;;;29.25;44.43;100805.56;1964569;73;21091;-62
2022/07/23 07:01:41;;;;;;;2.42;1.60;;;;;;;29.20;44.98;100807.96;1964530;72;21099;-61
2022/07/23 07:04:10;;;;;;;3.83;1.10;;;;;;;29.85;44.90;100804.39;1964635;73;21072;-61
2022/07/23 07:06:39;;;;;;;4.15;1.40;;;;;;;30.54;44.68;100803.29;1964664;72;21472;-61
2022/07/23 07:09:08;;;;;;;1.77;1.35;;;;;;;30.61;43.72;100805.58;1964577;73;21091;-60
2022/07/23 07:11:37;;;;;;;3.00;1.50;;;;;;;30.12;43.84;100808.84;1964797;72;21592;-61
2022/07/23 07:14:06;;;;;;;1.90;1.15;;;;;;;29.46;44.38;100805.39;1964734;72;21083;-61
2022/07/23 07:16:35;;;;;;;4.15;1.50;;;;;;;29.95;44.55;100813.09;1964682;71;21123;-61
2022/07/23 07:19:03;;;;;;;4.03;1.47;;;;;;;30.56;43.90;100811.59;1964614;73;21042;-60
2022/07/23 07:21:32;;;;;;;2.22;1.50;;;;;;;31.19;43.39;100804.28;1964685;72;21013;-61
2022/07/23 07:24:00;;;;;;;4.10;1.40;;;;;;;31.30;42.75;100820.58;1964654;72;21018;-60
2022/07/23 07:26:30;;;;;;;2.40;1.47;;;;;;;30.72;42.51;100826.83;1964481;72;21158;-61
2022/07/23 07:28:59;;;;;;;2.77;1.20;;;;;;;30.56;42.55;100831.97;1964567;73;21452;-60
2022/07/23 07:31:27;;;;;;;1.82;1.50;;;;;;;31.12;42.23;100828.68;1964713;73;21018;-61
2022/07/23 07:33:56;;;;;;;2.20;1.20;;;;;;;31.57;41.79;100814.90;1964605;72;21008;-60
2022/07/23 07:36:25;;;;;;;2.00;1.20;;;;;;;31.87;40.83;100818.30;1964709;73;21021;-60
2022/07/23 07:38:54;;;;;;;3.83;1.15;;;;;;;32.03;40.22;100813.60;1964480;72;21018;-61
2022/07/23 07:41:23;;;;;;;1.30;0.95;;;;;;;32.34;39.76;100807.70;1964579;73;21002;-60
2022/07/23 07:43:52;;;;;;;1.15;1.05;;;;;;;32.08;39.08;100816.58;1964637;73;21001;-60
2022/07/23 07:46:23;;;;;;;1.62;1.00;;;;;;;32.20;38.86;100812.23;1964545;73;21022;-60
2022/07/23 07:48:52;;;;;;;1.12;0.98;;;;;;;32.37;38.01;100817.34;1964730;72;21095;-61
2022/07/23 07:51:22;;;;;;;5.17;1.00;;;;;;;32.76;37.96;100814.50;1964462;73;21456;-61
2022/07/23 07:53:50;;;;;;;5.25;0.95;;;;;;;32.62;37.45;100817.72;1964578;72;21095;-61
2022/07/23 07:56:19;;;;;;;1.40;0.90;;;;;;;32.49;37.16;100819.83;1964583;73;21021;-61
2022/07/23 07:58:48;;;;;;;2.00;0.88;;;;;;;32.75;36.73;100815.03;1964628;73;21122;-61
2022/07/23 08:01:17;;;;;;;2.52;0.80;;;;;;;32.82;35.27;100823.25;1964561;72;21033;-61
2022/07/23 08:03:46;;;;;;;1.75;0.68;;;;;;;32.89;35.50;100824.11;1964606;73;21432;-61
2022/07/23 08:06:14;;;;;;;0.88;0.70;;;;;;;33.05;34.06;100811.47;1964577;72;21020;-61
2022/07/23 08:08:43;;;;;;;2.37;0.70;;;;;;;33.05;34.06;100811.47;1964713;72;21009;-61
2022/07/23 08:11:11;;;;;;;0.82;0.70;;;;;;;33.52;33.92;100806.08;1964588;73;20994;-61
2022/07/23 08:13:40;;;;;;;1.00;0.80;;;;;;;33.52;33.92;100806.08;1964671;72;21018;-61
2022/07/23 08:16:09;;;;;;;1.47;0.70;;;;;;;33.65;34.13;100823.02;1964564;73;21083;-61
2022/07/23 08:18:37;;;;;;;2.25;0.60;;;;;;;33.80;34.24;100822.27;1993703;71;21070;-61
2022/07/23 08:21:06;;;;;;;1.85;0.80;;;;;;;33.86;34.12;100824.67;2004503;71;21010;-61
2022/07/23 08:23:35;;;;;;;0.70;0.68;;;;;;;33.91;33.82;100824.05;2004656;71;21530;-61
2022/07/23 08:26:04;;;;;;;1.07;0.98;;;;;;;33.93;33.59;100828.23;2004746;71;20991;-61
2022/07/23 08:28:33;;;;;;;3.87;1.00;;;;;;;33.72;33.82;100822.49;2004597;71;21049;-61
2022/07/23 08:31:02;;;;;;;1.27;0.90;;;;;;;33.58;34.08;100827.60;2004369;71;20983;-61
2022/07/23 08:33:30;;;;;;;4.10;0.85;;;;;;;33.97;34.09;100834.12;2004438;71;21509;-61
2022/07/23 08:36:00;;;;;;;1.17;0.90;;;;;;;33.97;34.09;100834.12;2004495;71;21018;-61
2022/07/23 08:38:28;;;;;;;1.12;0.78;;;;;;;34.13;33.89;100841.88;2004545;71;21458;-61
2022/07/23 08:41:00;;;;;;;3.87;0.90;;;;;;;34.15;33.50;100843.03;2004478;71;21313;-61
2022/07/23 08:43:31;;;;;;;3.10;0.80;;;;;;;34.18;33.72;100840.74;2004730;71;21011;-60
2022/07/23 08:46:01;;;;;;;8.10;1.00;;;;;;;33.77;33.47;100835.00;2004510;71;21446;-60
2022/07/23 08:48:33;;;;;;;3.58;0.70;;;;;;;33.66;33.25;100847.89;2004570;71;21473;-60
2022/07/23 08:51:04;;;;;;;0.65;0.65;;;;;;;33.82;32.91;100839.27;2004729;71;21453;-60
2022/07/23 08:53:35;;;;;;;2.35;0.80;;;;;;;33.99;32.62;100833.37;2004592;71;20991;-60
2022/07/23 08:56:05;;;;;;;1.05;0.72;;;;;;;34.06;32.42;100830.64;2004369;71;21015;-60
2022/07/23 08:58:34;;;;;;;0.50;0.50;;;;;;;34.10;32.26;100831.36;2004581;71;21014;-60
2022/07/23 09:01:04;;;;;;;0.88;0.85;;;;;;;33.94;31.88;100831.80;2004450;71;21014;-60
2022/07/23 09:03:35;;;;;;;2.70;0.80;;;;;;;33.67;31.76;100840.03;2004564;71;21007;-60
2022/07/23 09:06:04;;;;;;;1.92;0.80;;;;;;;33.56;32.41;100837.89;2004698;71;21096;-62
2022/07/23 09:08:42;;;;;;;2.27;0.90;;;;;;;33.62;32.48;100830.22;2004595;71;21010;-59
2022/07/23 09:11:14;;;;;;;1.15;1.00;;;;;;;33.85;32.77;100842.95;2004594;71;21083;-60
2022/07/23 09:13:52;;;;;;;2.98;1.00;;;;;;;34.18;32.61;100835.81;2004747;71;21018;-60
2022/07/23 09:16:29;;;;;;;1.27;0.62;;;;;;;34.35;32.21;100833.45;2004577;71;21003;-60
2022/07/23 09:19:03;;;;;;;0.78;0.70;;;;;;;34.53;32.04;100824.03;2004510;71;21074;-61
2022/07/23 09:21:38;;;;;;;1.12;0.80;;;;;;;34.65;31.72;100826.08;2004679;71;20983;-61
2022/07/23 09:24:11;;;;;;;1.62;0.70;;;;;;;34.79;31.65;100841.41;2004672;71;21007;-59
2022/07/23 09:26:46;;;;;;;0.78;0.60;;;;;;;34.67;31.10;100829.44;2004699;71;21069;-60
2022/07/23 09:29:17;;;;;;;2.65;0.90;;;;;;;34.67;31.10;100829.44;2004474;71;21077;-61
2022/07/23 09:31:55;;;;;;;1.92;0.95;;;;;;;34.60;31.58;100833.05;2004843;71;21007;-61
2022/07/23 09:34:38;;;;;;;1.87;0.70;;;;;;;34.84;31.66;100834.73;2004599;71;21011;-60
2022/07/23 09:37:14;;;;;;;1.42;0.80;;;;;;;34.44;31.74;100841.72;2004958;71;21445;-59
2022/07/23 09:39:44;;;;;;;4.92;1.17;;;;;;;34.13;31.86;100833.67;2004553;71;21018;-61
2022/07/23 09:42:18;;;;;;;1.00;0.85;;;;;;;34.20;32.23;100843.27;2004679;71;21511;-60
2022/07/23 09:44:49;;;;;;;1.52;1.00;;;;;;;34.19;32.33;100836.94;2004524;71;21035;-60
2022/07/23 09:47:19;;;;;;;2.77;0.82;;;;;;;34.19;32.33;100836.31;2004673;71;21019;-60
2022/07/23 09:50:08;;;;;;;4.90;0.80;;;;;;;34.04;32.42;100836.31;2004664;71;21518;-60
2022/07/23 09:52:48;;;;;;;2.45;0.80;;;;;;;34.00;32.58;100836.44;2004411;71;21116;-60
2022/07/23 09:55:18;;;;;;;1.22;0.80;;;;;;;33.73;32.33;100831.52;2004568;71;21096;-61
2022/07/23 09:57:53;;;;;;;1.25;0.90;;;;;;;33.73;32.33;100831.52;2004641;71;21080;-61
2022/07/23 10:00:21;;;;;;;0.90;0.82;;;;;;;33.76;32.69;100838.77;2004534;71;21010;-61
2022/07/23 10:02:52;;;;;;;1.62;0.80;;;;;;;32.96;33.10;100842.70;2004639;71;21046;-61
2022/07/23 10:05:29;;;;;;;1.07;0.80;;;;;;;32.39;33.72;100843.87;1960171;71;21042;-60
2022/07/23 10:08:19;;;;;;;1.00;0.85;;;;;;;32.49;34.30;100848.45;2004420;71;21144;-60
2022/07/23 10:11:07;;;;;;;1.70;1.00;;;;;;;32.77;34.24;100841.56;2004314;71;21067;-60
2022/07/23 10:13:59;;;;;;;1.82;0.80;;;;;;;32.21;34.20;100835.72;2003893;71;21111;-61
2022/07/23 10:16:25;;;;;;;1.40;0.70;;;;;;;32.04;34.36;100835.19;2003319;71;21107;-59
2022/07/23 10:18:55;;;;;;;1.90;0.88;;;;;;;32.33;34.47;100835.98;2005190;71;21554;-60
2022/07/23 10:21:41;;;;;;;3.70;0.80;;;;;;;32.53;34.48;100840.70;2007067;71;21022;-61
2022/07/23 10:24:46;;;;;;;2.08;1.00;;;;;;;32.58;34.37;100845.06;2007345;71;21030;-60
2022/07/23 10:27:53;;;;;;;2.00;0.80;;;;;;;32.67;34.29;100839.23;2007244;71;21022;-60
2022/07/23 10:30:24;;;;;;;2.45;1.00;;;;;;;32.87;33.78;100845.30;2007810;71;20983;-60
2022/07/23 10:33:14;;;;;;;3.00;0.90;;;;;;;32.94;34.22;100850.22;2007649;71;21014;-60
2022/07/23 10:35:51;;;;;;;1.30;1.10;;;;;;;32.83;34.07;100846.72;1951664;73;21104;-60
2022/07/23 10:38:32;;;;;;;10.53;1.10;;;;;;;32.72;34.13;100841.36;2007250;71;21014;-61
2022/07/23 10:41:05;;;;;;;1.60;1.00;;;;;;;32.30;34.10;100839.96;2007238;71;21520;-60
2022/07/23 10:43:34;;;;;;;1.27;0.93;;;;;;;31.97;34.54;100840.25;2007354;71;21014;-60
2022/07/23 10:46:29;;;;;;;1.30;0.88;;;;;;;31.75;34.94;100841.64;2007199;71;21096;-61
2022/07/23 10:49:22;;;;;;;3.80;0.98;;;;;;;31.67;34.98;100849.94;2005892;71;21084;-61
2022/07/23 10:52:13;;;;;;;2.90;1.00;;;;;;;31.16;35.42;100847.64;2007239;71;21012;-60
2022/07/23 10:54:44;;;;;;;2.95;1.05;;;;;;;30.71;35.84;100855.05;1983120;71;21026;-62
2022/07/23 10:57:15;;;;;;;1.42;1.05;;;;;;;30.18;36.46;100848.33;2007342;71;21445;-61
2022/07/23 11:00:12;;;;;;;2.30;1.27;;;;;;;29.63;37.05;100863.91;2007328;71;21015;-61
2022/07/23 11:02:43;;;;;;;1.10;1.00;;;;;;;29.36;37.42;100860.37;2007212;71;21100;-60
2022/07/23 11:05:14;;;;;;;4.92;1.12;;;;;;;29.08;37.63;100862.22;2007184;70;21007;-61
2022/07/23 11:08:02;;;;;;;1.82;1.00;;;;;;;29.28;37.58;100855.03;2007301;71;21434;-60
2022/07/23 11:10:36;;;;;;;4.05;1.40;;;;;;;29.55;37.48;100861.79;2007324;71;21530;-61
2022/07/23 11:13:29;;;;;;;1.52;0.90;;;;;;;29.60;37.39;100857.50;2007257;71;21116;-61
2022/07/23 11:16:06;;;;;;;8.63;1.00;;;;;;;29.69;37.00;100856.90;2007335;71;21018;-60
2022/07/23 11:18:47;;;;;;;7.25;0.93;;;;;;;29.73;36.69;100857.37;2007298;71;21018;-61
2022/07/23 11:21:30;;;;;;;1.55;0.90;;;;;;;29.69;36.48;100855.54;2004562;71;21050;-60
2022/07/23 11:24:02;;;;;;;2.83;1.45;;;;;;;29.51;36.61;100863.16;2003214;71;21093;-61
2022/07/23 11:26:51;;;;;;;5.95;1.20;;;;;;;29.35;36.99;100856.84;2004425;71;20990;-62
2022/07/23 11:29:33;;;;;;;2.33;1.40;;;;;;;29.33;37.17;100862.12;2004519;71;21116;-60
2022/07/23 11:32:07;;;;;;;0.70;0.70;;;;;;;29.19;37.54;100865.91;2004400;71;21018;-61
2022/07/23 11:34:48;;;;;;;3.15;0.80;;;;;;;29.06;37.60;100864.27;2004437;71;21019;-61
2022/07/23 11:37:36;;;;;;;1.05;0.82;;;;;;;28.95;37.40;100870.93;2004401;71;21011;-60
2022/07/23 11:40:08;;;;;;;1.30;0.93;;;;;;;28.86;37.54;100872.83;2004428;71;21011;-60
2022/07/23 11:42:42;;;;;;;2.50;1.00;;;;;;;28.80;37.66;100870.00;2003849;71;21493;-61